sensor_id;sensor_type;location;lat;lon;timestamp;pressure;altitude;pressure_sealevel;temperature;humidity
37066;BME280;22981;43.080;25.550;2024-02-21T00:01:59;100354.17;;;4.25;88.68
37066;BME280;22981;43.080;25.550;2024-02-21T00:04:26;100355.33;;;4.26;88.80
37066;BME280;22981;43.080;25.550;2024-02-21T00:06:54;100360.83;;;4.29;88.77
37066;BME280;22981;43.080;25.550;2024-02-21T00:09:21;100354.70;;;4.29;88.73
37066;BME280;22981;43.080;25.550;2024-02-21T00:11:49;100356.16;;;4.27;88.75
37066;BME280;22981;43.080;25.550;2024-02-21T00:14:16;100354.50;;;4.26;88.85
37066;BME280;22981;43.080;25.550;2024-02-21T00:16:44;100358.81;;;4.27;88.88
37066;BME280;22981;43.080;25.550;2024-02-21T00:19:12;100346.86;;;4.23;88.92
37066;BME280;22981;43.080;25.550;2024-02-21T00:21:41;100353.51;;;4.27;89.09
37066;BME280;22981;43.080;25.550;2024-02-21T00:24:08;100347.73;;;4.32;89.04
37066;BME280;22981;43.080;25.550;2024-02-21T00:26:36;100346.77;;;4.37;88.97
37066;BME280;22981;43.080;25.550;2024-02-21T00:29:04;100346.31;;;4.41;88.87
37066;BME280;22981;43.080;25.550;2024-02-21T00:31:31;100341.17;;;4.44;88.82
37066;BME280;22981;43.080;25.550;2024-02-21T00:33:59;100339.02;;;4.43;88.86
37066;BME280;22981;43.080;25.550;2024-02-21T00:36:26;100332.72;;;4.44;88.93
37066;BME280;22981;43.080;25.550;2024-02-21T00:38:54;100340.55;;;4.50;88.96
37066;BME280;22981;43.080;25.550;2024-02-21T00:41:22;100336.91;;;4.51;88.92
37066;BME280;22981;43.080;25.550;2024-02-21T00:43:49;100334.06;;;4.48;88.81
37066;BME280;22981;43.080;25.550;2024-02-21T00:46:17;100332.41;;;4.47;88.74
37066;BME280;22981;43.080;25.550;2024-02-21T00:48:45;100331.56;;;4.43;88.74
37066;BME280;22981;43.080;25.550;2024-02-21T00:51:12;100332.20;;;4.41;88.82
37066;BME280;22981;43.080;25.550;2024-02-21T00:53:40;100331.38;;;4.40;88.80
37066;BME280;22981;43.080;25.550;2024-02-21T00:56:07;100332.67;;;4.36;88.81
37066;BME280;22981;43.080;25.550;2024-02-21T00:58:35;100325.39;;;4.34;88.99
37066;BME280;22981;43.080;25.550;2024-02-21T01:01:02;100324.72;;;4.36;89.03
37066;BME280;22981;43.080;25.550;2024-02-21T01:03:30;100329.72;;;4.39;88.96
37066;BME280;22981;43.080;25.550;2024-02-21T01:05:58;100318.28;;;4.39;88.87
37066;BME280;22981;43.080;25.550;2024-02-21T01:08:25;100324.75;;;4.40;88.88
37066;BME280;22981;43.080;25.550;2024-02-21T01:10:53;100322.09;;;4.40;88.85
37066;BME280;22981;43.080;25.550;2024-02-21T01:13:20;100316.98;;;4.43;88.80
37066;BME280;22981;43.080;25.550;2024-02-21T01:15:48;100326.27;;;4.43;88.80
37066;BME280;22981;43.080;25.550;2024-02-21T01:18:15;100317.48;;;4.42;88.85
37066;BME280;22981;43.080;25.550;2024-02-21T01:20:43;100321.78;;;4.43;88.85
37066;BME280;22981;43.080;25.550;2024-02-21T01:23:10;100323.28;;;4.42;88.87
37066;BME280;22981;43.080;25.550;2024-02-21T01:25:38;100330.88;;;4.41;88.90
37066;BME280;22981;43.080;25.550;2024-02-21T01:28:06;100322.44;;;4.37;88.92
37066;BME280;22981;43.080;25.550;2024-02-21T01:30:33;100315.95;;;4.36;88.95
37066;BME280;22981;43.080;25.550;2024-02-21T01:33:01;100319.27;;;4.34;88.99
37066;BME280;22981;43.080;25.550;2024-02-21T01:35:28;100316.28;;;4.33;89.04
37066;BME280;22981;43.080;25.550;2024-02-21T01:37:56;100313.13;;;4.33;89.00
37066;BME280;22981;43.080;25.550;2024-02-21T01:40:23;100309.80;;;4.31;88.97
37066;BME280;22981;43.080;25.550;2024-02-21T01:42:51;100306.30;;;4.26;89.01
37066;BME280;22981;43.080;25.550;2024-02-21T01:45:21;100302.98;;;4.24;89.12
37066;BME280;22981;43.080;25.550;2024-02-21T01:47:49;100312.90;;;4.22;89.13
37066;BME280;22981;43.080;25.550;2024-02-21T01:50:17;100307.92;;;4.23;89.15
37066;BME280;22981;43.080;25.550;2024-02-21T01:52:46;100308.78;;;4.24;89.04
37066;BME280;22981;43.080;25.550;2024-02-21T01:55:16;100309.75;;;4.23;89.01
37066;BME280;22981;43.080;25.550;2024-02-21T01:57:44;100302.97;;;4.20;89.01
37066;BME280;22981;43.080;25.550;2024-02-21T02:00:13;100311.74;;;4.21;88.97
37066;BME280;22981;43.080;25.550;2024-02-21T02:02:42;100307.27;;;4.21;88.95
37066;BME280;22981;43.080;25.550;2024-02-21T02:05:11;100302.14;;;4.20;88.95
37066;BME280;22981;43.080;25.550;2024-02-21T02:07:38;100302.97;;;4.20;88.98
37066;BME280;22981;43.080;25.550;2024-02-21T02:10:07;100298.82;;;4.22;88.94
37066;BME280;22981;43.080;25.550;2024-02-21T02:12:36;100293.02;;;4.22;88.89
37066;BME280;22981;43.080;25.550;2024-02-21T02:15:04;100293.35;;;4.23;88.83
37066;BME280;22981;43.080;25.550;2024-02-21T02:17:32;100295.86;;;4.25;88.76
37066;BME280;22981;43.080;25.550;2024-02-21T02:19:59;100289.88;;;4.23;88.73
37066;BME280;22981;43.080;25.550;2024-02-21T02:22:29;100292.20;;;4.22;88.74
37066;BME280;22981;43.080;25.550;2024-02-21T02:24:58;100291.98;;;4.15;88.75
37066;BME280;22981;43.080;25.550;2024-02-21T02:27:26;100290.97;;;4.08;88.83
37066;BME280;22981;43.080;25.550;2024-02-21T02:29:54;100293.77;;;4.03;89.03
37066;BME280;22981;43.080;25.550;2024-02-21T02:32:21;100293.09;;;4.05;89.17
37066;BME280;22981;43.080;25.550;2024-02-21T02:34:49;100299.75;;;4.09;89.15
37066;BME280;22981;43.080;25.550;2024-02-21T02:37:16;100293.31;;;4.11;89.08
37066;BME280;22981;43.080;25.550;2024-02-21T02:39:44;100297.78;;;4.15;89.04
37066;BME280;22981;43.080;25.550;2024-02-21T02:42:11;100293.30;;;4.15;88.96
37066;BME280;22981;43.080;25.550;2024-02-21T02:44:39;100286.88;;;4.18;88.92
37066;BME280;22981;43.080;25.550;2024-02-21T02:47:06;100293.00;;;4.18;88.82
37066;BME280;22981;43.080;25.550;2024-02-21T02:49:34;100297.78;;;4.15;88.81
37066;BME280;22981;43.080;25.550;2024-02-21T02:52:02;100299.27;;;4.13;88.88
37066;BME280;22981;43.080;25.550;2024-02-21T02:54:29;100291.33;;;4.13;88.91
37066;BME280;22981;43.080;25.550;2024-02-21T02:56:57;100302.25;;;4.14;88.90
37066;BME280;22981;43.080;25.550;2024-02-21T02:59:24;100300.59;;;4.13;88.91
37066;BME280;22981;43.080;25.550;2024-02-21T03:01:52;100299.94;;;4.11;88.90
37066;BME280;22981;43.080;25.550;2024-02-21T03:04:19;100302.89;;;4.08;88.90
37066;BME280;22981;43.080;25.550;2024-02-21T03:06:47;100305.52;;;4.04;88.93
37066;BME280;22981;43.080;25.550;2024-02-21T03:09:15;100306.32;;;4.00;88.99
37066;BME280;22981;43.080;25.550;2024-02-21T03:11:43;100306.81;;;4.00;88.97
37066;BME280;22981;43.080;25.550;2024-02-21T03:14:10;100302.84;;;4.00;88.99
37066;BME280;22981;43.080;25.550;2024-02-21T03:16:38;100304.83;;;4.02;88.92
37066;BME280;22981;43.080;25.550;2024-02-21T03:19:06;100307.97;;;4.01;88.92
37066;BME280;22981;43.080;25.550;2024-02-21T03:21:34;100311.62;;;4.00;88.81
37066;BME280;22981;43.080;25.550;2024-02-21T03:24:01;100310.77;;;3.96;88.85
37066;BME280;22981;43.080;25.550;2024-02-21T03:26:29;100311.27;;;3.95;88.99
37066;BME280;22981;43.080;25.550;2024-02-21T03:28:56;100308.31;;;3.98;88.98
37066;BME280;22981;43.080;25.550;2024-02-21T03:31:24;100308.47;;;4.01;88.99
37066;BME280;22981;43.080;25.550;2024-02-21T03:33:51;100308.34;;;4.03;88.90
37066;BME280;22981;43.080;25.550;2024-02-21T03:36:19;100309.98;;;4.04;88.91
37066;BME280;22981;43.080;25.550;2024-02-21T03:38:47;100306.52;;;4.03;88.86
37066;BME280;22981;43.080;25.550;2024-02-21T03:41:14;100307.50;;;4.06;88.93
37066;BME280;22981;43.080;25.550;2024-02-21T03:43:42;100304.05;;;4.10;88.88
37066;BME280;22981;43.080;25.550;2024-02-21T03:46:09;100309.68;;;4.11;88.73
37066;BME280;22981;43.080;25.550;2024-02-21T03:48:37;100310.02;;;4.08;88.71
37066;BME280;22981;43.080;25.550;2024-02-21T03:51:05;100303.86;;;4.03;88.73
37066;BME280;22981;43.080;25.550;2024-02-21T03:53:33;100307.34;;;4.04;88.83
37066;BME280;22981;43.080;25.550;2024-02-21T03:56:04;100311.45;;;4.02;88.80
37066;BME280;22981;43.080;25.550;2024-02-21T03:58:32;100306.62;;;3.97;88.83
37066;BME280;22981;43.080;25.550;2024-02-21T04:01:03;100306.62;;;3.97;88.95
37066;BME280;22981;43.080;25.550;2024-02-21T04:03:31;100304.80;;;3.98;88.99
37066;BME280;22981;43.080;25.550;2024-02-21T04:05:58;100297.71;;;3.98;88.96
37066;BME280;22981;43.080;25.550;2024-02-21T04:08:26;100297.35;;;3.97;88.97
37066;BME280;22981;43.080;25.550;2024-02-21T04:10:54;100294.06;;;3.99;88.98
37066;BME280;22981;43.080;25.550;2024-02-21T04:13:22;100296.19;;;3.96;88.82
37066;BME280;22981;43.080;25.550;2024-02-21T04:15:49;100300.44;;;3.89;88.85
37066;BME280;22981;43.080;25.550;2024-02-21T04:18:17;100296.44;;;3.85;89.09
37066;BME280;22981;43.080;25.550;2024-02-21T04:20:44;100295.12;;;3.85;89.13
37066;BME280;22981;43.080;25.550;2024-02-21T04:23:12;100295.28;;;3.83;89.18
37066;BME280;22981;43.080;25.550;2024-02-21T04:25:40;100300.75;;;3.82;89.18
37066;BME280;22981;43.080;25.550;2024-02-21T04:28:08;100299.76;;;3.83;89.17
37066;BME280;22981;43.080;25.550;2024-02-21T04:30:35;100294.46;;;3.83;89.09
37066;BME280;22981;43.080;25.550;2024-02-21T04:33:03;100301.91;;;3.83;89.04
37066;BME280;22981;43.080;25.550;2024-02-21T04:35:30;100303.03;;;3.81;88.97
37066;BME280;22981;43.080;25.550;2024-02-21T04:37:58;100301.22;;;3.77;88.87
37066;BME280;22981;43.080;25.550;2024-02-21T04:40:25;100306.48;;;3.73;88.78
37066;BME280;22981;43.080;25.550;2024-02-21T04:42:53;100312.55;;;3.65;88.89
37066;BME280;22981;43.080;25.550;2024-02-21T04:45:21;100315.49;;;3.62;88.99
37066;BME280;22981;43.080;25.550;2024-02-21T04:47:48;100311.48;;;3.58;88.99
37066;BME280;22981;43.080;25.550;2024-02-21T04:50:16;100314.30;;;3.57;88.98
37066;BME280;22981;43.080;25.550;2024-02-21T04:52:44;100314.44;;;3.55;88.93
37066;BME280;22981;43.080;25.550;2024-02-21T04:55:11;100307.81;;;3.55;88.90
37066;BME280;22981;43.080;25.550;2024-02-21T04:57:39;100317.94;;;3.56;88.82
37066;BME280;22981;43.080;25.550;2024-02-21T05:00:07;100316.95;;;3.57;88.80
37066;BME280;22981;43.080;25.550;2024-02-21T05:02:35;100322.37;;;3.55;88.74
37066;BME280;22981;43.080;25.550;2024-02-21T05:05:03;100324.56;;;3.56;88.69
37066;BME280;22981;43.080;25.550;2024-02-21T05:07:31;100324.20;;;3.55;88.63
37066;BME280;22981;43.080;25.550;2024-02-21T05:09:59;100327.20;;;3.56;88.66
37066;BME280;22981;43.080;25.550;2024-02-21T05:12:26;100322.05;;;3.54;88.56
37066;BME280;22981;43.080;25.550;2024-02-21T05:14:54;100326.52;;;3.54;88.55
37066;BME280;22981;43.080;25.550;2024-02-21T05:17:21;100329.66;;;3.53;88.53
37066;BME280;22981;43.080;25.550;2024-02-21T05:19:49;100330.48;;;3.54;88.49
37066;BME280;22981;43.080;25.550;2024-02-21T05:22:16;100335.28;;;3.54;88.44
37066;BME280;22981;43.080;25.550;2024-02-21T05:24:44;100342.10;;;3.57;88.41
37066;BME280;22981;43.080;25.550;2024-02-21T05:27:11;100340.28;;;3.57;88.39
37066;BME280;22981;43.080;25.550;2024-02-21T05:29:39;100343.27;;;3.58;88.41
37066;BME280;22981;43.080;25.550;2024-02-21T05:32:07;100341.30;;;3.60;88.42
37066;BME280;22981;43.080;25.550;2024-02-21T05:34:34;100350.58;;;3.60;88.48
37066;BME280;22981;43.080;25.550;2024-02-21T05:37:02;100343.79;;;3.62;88.52
37066;BME280;22981;43.080;25.550;2024-02-21T05:39:29;100349.75;;;3.64;88.50
37066;BME280;22981;43.080;25.550;2024-02-21T05:41:57;100350.25;;;3.63;88.54
37066;BME280;22981;43.080;25.550;2024-02-21T05:44:24;100354.72;;;3.63;88.61
37066;BME280;22981;43.080;25.550;2024-02-21T05:46:53;100356.04;;;3.63;88.74
37066;BME280;22981;43.080;25.550;2024-02-21T05:49:21;100356.34;;;3.60;88.81
37066;BME280;22981;43.080;25.550;2024-02-21T05:51:49;100359.67;;;3.62;88.84
37066;BME280;22981;43.080;25.550;2024-02-21T05:54:17;100359.98;;;3.59;88.85
37066;BME280;22981;43.080;25.550;2024-02-21T05:56:45;100359.94;;;3.55;88.84
37066;BME280;22981;43.080;25.550;2024-02-21T05:59:13;100368.17;;;3.47;88.86
37066;BME280;22981;43.080;25.550;2024-02-21T06:01:41;100370.41;;;3.42;89.06
37066;BME280;22981;43.080;25.550;2024-02-21T06:04:08;100367.63;;;3.44;89.18
37066;BME280;22981;43.080;25.550;2024-02-21T06:06:36;100373.59;;;3.46;89.20
37066;BME280;22981;43.080;25.550;2024-02-21T06:09:03;100375.45;;;3.49;89.17
37066;BME280;22981;43.080;25.550;2024-02-21T06:11:31;100371.19;;;3.53;89.14
37066;BME280;22981;43.080;25.550;2024-02-21T06:13:59;100380.49;;;3.57;89.08
37066;BME280;22981;43.080;25.550;2024-02-21T06:16:26;100382.02;;;3.63;89.06
37066;BME280;22981;43.080;25.550;2024-02-21T06:18:54;100379.64;;;3.74;88.90
37066;BME280;22981;43.080;25.550;2024-02-21T06:21:22;100379.25;;;3.87;88.81
37066;BME280;22981;43.080;25.550;2024-02-21T06:23:49;100382.33;;;4.00;88.57
37066;BME280;22981;43.080;25.550;2024-02-21T06:26:17;100378.02;;;3.99;88.21
37066;BME280;22981;43.080;25.550;2024-02-21T06:28:44;100382.83;;;3.99;88.39
37066;BME280;22981;43.080;25.550;2024-02-21T06:31:13;100385.84;;;4.05;88.38
37066;BME280;22981;43.080;25.550;2024-02-21T06:33:42;100383.02;;;4.06;88.39
37066;BME280;22981;43.080;25.550;2024-02-21T06:36:10;100382.75;;;4.13;88.42
37066;BME280;22981;43.080;25.550;2024-02-21T06:38:37;100380.95;;;4.18;88.28
37066;BME280;22981;43.080;25.550;2024-02-21T06:41:05;100385.63;;;4.20;88.23
37066;BME280;22981;43.080;25.550;2024-02-21T06:43:33;100383.44;;;4.19;88.14
37066;BME280;22981;43.080;25.550;2024-02-21T06:46:01;100379.94;;;4.15;88.18
37066;BME280;22981;43.080;25.550;2024-02-21T06:48:28;100383.08;;;4.14;88.35
37066;BME280;22981;43.080;25.550;2024-02-21T06:50:56;100389.20;;;4.15;88.37
37066;BME280;22981;43.080;25.550;2024-02-21T06:53:23;100379.44;;;4.15;88.51
37066;BME280;22981;43.080;25.550;2024-02-21T06:55:51;100379.83;;;4.20;88.62
37066;BME280;22981;43.080;25.550;2024-02-21T06:58:18;100381.23;;;4.33;88.76
37066;BME280;22981;43.080;25.550;2024-02-21T07:00:46;100378.86;;;4.56;88.63
37066;BME280;22981;43.080;25.550;2024-02-21T07:03:14;100375.31;;;4.77;88.37
37066;BME280;22981;43.080;25.550;2024-02-21T07:05:41;100368.55;;;4.91;88.01
37066;BME280;22981;43.080;25.550;2024-02-21T07:08:09;100373.72;;;5.00;87.77
37066;BME280;22981;43.080;25.550;2024-02-21T07:10:36;100375.75;;;5.11;87.66
37066;BME280;22981;43.080;25.550;2024-02-21T07:13:04;100372.45;;;5.21;87.53
37066;BME280;22981;43.080;25.550;2024-02-21T07:15:31;100368.82;;;5.34;87.52
37066;BME280;22981;43.080;25.550;2024-02-21T07:17:59;100366.88;;;5.48;87.32
37066;BME280;22981;43.080;25.550;2024-02-21T07:20:27;100368.36;;;5.55;87.08
37066;BME280;22981;43.080;25.550;2024-02-21T07:22:55;100373.34;;;5.62;87.10
37066;BME280;22981;43.080;25.550;2024-02-21T07:25:22;100374.52;;;5.84;86.96
37066;BME280;22981;43.080;25.550;2024-02-21T07:27:50;100377.70;;;5.96;86.58
37066;BME280;22981;43.080;25.550;2024-02-21T07:30:17;100374.36;;;5.98;86.28
37066;BME280;22981;43.080;25.550;2024-02-21T07:32:45;100370.05;;;5.93;86.25
37066;BME280;22981;43.080;25.550;2024-02-21T07:35:13;100377.31;;;5.91;86.41
37066;BME280;22981;43.080;25.550;2024-02-21T07:37:40;100373.83;;;5.90;86.68
37066;BME280;22981;43.080;25.550;2024-02-21T07:40:13;100375.37;;;5.97;86.83
37066;BME280;22981;43.080;25.550;2024-02-21T07:42:38;100377.52;;;5.97;86.82
37066;BME280;22981;43.080;25.550;2024-02-21T07:45:09;100374.68;;;6.07;86.89
37066;BME280;22981;43.080;25.550;2024-02-21T07:47:37;100373.52;;;6.14;86.78
37066;BME280;22981;43.080;25.550;2024-02-21T07:50:05;100370.17;;;6.20;86.75
37066;BME280;22981;43.080;25.550;2024-02-21T07:52:33;100371.48;;;6.32;86.86
37066;BME280;22981;43.080;25.550;2024-02-21T07:55:01;100373.61;;;6.45;86.71
37066;BME280;22981;43.080;25.550;2024-02-21T07:57:30;100369.25;;;6.64;86.55
37066;BME280;22981;43.080;25.550;2024-02-21T07:59:57;100370.34;;;6.78;86.18
37066;BME280;22981;43.080;25.550;2024-02-21T08:02:25;100370.64;;;6.87;85.98
37066;BME280;22981;43.080;25.550;2024-02-21T08:04:52;100369.93;;;6.93;85.70
37066;BME280;22981;43.080;25.550;2024-02-21T08:07:20;100369.55;;;7.05;85.63
37066;BME280;22981;43.080;25.550;2024-02-21T08:09:47;100367.45;;;7.23;85.38
37066;BME280;22981;43.080;25.550;2024-02-21T08:12:15;100369.55;;;7.32;85.02
37066;BME280;22981;43.080;25.550;2024-02-21T08:14:42;100369.98;;;7.43;84.94
37066;BME280;22981;43.080;25.550;2024-02-21T08:17:10;100361.43;;;7.52;84.67
37066;BME280;22981;43.080;25.550;2024-02-21T08:19:37;100361.22;;;7.58;84.55
37066;BME280;22981;43.080;25.550;2024-02-21T08:22:05;100361.95;;;7.70;84.43
37066;BME280;22981;43.080;25.550;2024-02-21T08:24:33;100364.92;;;7.94;84.01
37066;BME280;22981;43.080;25.550;2024-02-21T08:27:01;100365.45;;;8.09;83.46
37066;BME280;22981;43.080;25.550;2024-02-21T08:29:28;100363.92;;;8.29;83.30
37066;BME280;22981;43.080;25.550;2024-02-21T08:31:56;100364.34;;;8.70;82.52
37066;BME280;22981;43.080;25.550;2024-02-21T08:34:23;100361.47;;;9.12;81.41
37066;BME280;22981;43.080;25.550;2024-02-21T08:36:51;100355.50;;;9.53;80.20
37066;BME280;22981;43.080;25.550;2024-02-21T08:39:19;100358.22;;;9.92;78.57
37066;BME280;22981;43.080;25.550;2024-02-21T08:41:46;100354.22;;;10.20;77.58
37066;BME280;22981;43.080;25.550;2024-02-21T08:44:14;100354.12;;;10.52;76.46
37066;BME280;22981;43.080;25.550;2024-02-21T08:46:41;100350.97;;;10.76;74.64
37066;BME280;22981;43.080;25.550;2024-02-21T08:49:10;100349.07;;;10.88;73.19
37066;BME280;22981;43.080;25.550;2024-02-21T08:51:38;100341.08;;;11.01;72.69
37066;BME280;22981;43.080;25.550;2024-02-21T08:54:05;100338.56;;;11.23;72.22
37066;BME280;22981;43.080;25.550;2024-02-21T08:56:34;100344.80;;;11.50;71.12
37066;BME280;22981;43.080;25.550;2024-02-21T08:59:02;100338.92;;;11.64;69.95
37066;BME280;22981;43.080;25.550;2024-02-21T09:01:30;100335.33;;;11.81;69.48
37066;BME280;22981;43.080;25.550;2024-02-21T09:03:57;100336.39;;;11.93;68.70
37066;BME280;22981;43.080;25.550;2024-02-21T09:06:25;100337.42;;;12.12;68.45
37066;BME280;22981;43.080;25.550;2024-02-21T09:08:56;100337.45;;;12.41;67.66
37066;BME280;22981;43.080;25.550;2024-02-21T09:11:24;100332.78;;;12.59;66.73
37066;BME280;22981;43.080;25.550;2024-02-21T09:13:53;100328.06;;;12.77;65.91
37066;BME280;22981;43.080;25.550;2024-02-21T09:16:21;100330.52;;;12.85;64.95
37066;BME280;22981;43.080;25.550;2024-02-21T09:18:49;100324.17;;;12.89;63.87
37066;BME280;22981;43.080;25.550;2024-02-21T09:21:17;100322.39;;;13.14;63.74
37066;BME280;22981;43.080;25.550;2024-02-21T09:23:45;100322.70;;;13.38;63.13
37066;BME280;22981;43.080;25.550;2024-02-21T09:26:13;100322.05;;;13.58;62.09
37066;BME280;22981;43.080;25.550;2024-02-21T09:28:43;100319.19;;;13.78;61.84
37066;BME280;22981;43.080;25.550;2024-02-21T09:31:13;100324.27;;;13.93;61.15
37066;BME280;22981;43.080;25.550;2024-02-21T09:33:40;100320.97;;;14.00;60.43
37066;BME280;22981;43.080;25.550;2024-02-21T09:36:08;100316.83;;;14.13;60.02
37066;BME280;22981;43.080;25.550;2024-02-21T09:38:36;100314.30;;;14.27;59.20
37066;BME280;22981;43.080;25.550;2024-02-21T09:41:17;100321.27;;;14.35;58.77
37066;BME280;22981;43.080;25.550;2024-02-21T09:43:45;100315.53;;;14.50;58.07
37066;BME280;22981;43.080;25.550;2024-02-21T09:46:18;100317.38;;;14.31;56.20
37066;BME280;22981;43.080;25.550;2024-02-21T09:51:33;100317.66;;;13.10;58.27
37066;BME280;22981;43.080;25.550;2024-02-21T09:54:03;100318.19;;;12.64;59.74
37066;BME280;22981;43.080;25.550;2024-02-21T09:56:31;100312.69;;;12.39;60.80
37066;BME280;22981;43.080;25.550;2024-02-21T09:58:59;100313.65;;;12.16;61.15
37066;BME280;22981;43.080;25.550;2024-02-21T10:01:26;100311.11;;;11.92;61.60
37066;BME280;22981;43.080;25.550;2024-02-21T10:03:54;100313.25;;;11.79;61.86
37066;BME280;22981;43.080;25.550;2024-02-21T10:06:22;100303.45;;;11.62;61.54
37066;BME280;22981;43.080;25.550;2024-02-21T10:08:53;100305.28;;;11.42;60.95
37066;BME280;22981;43.080;25.550;2024-02-21T10:11:25;100306.39;;;11.30;61.43
37066;BME280;22981;43.080;25.550;2024-02-21T10:14:03;100301.13;;;11.19;61.79
37066;BME280;22981;43.080;25.550;2024-02-21T10:16:34;100301.74;;;11.15;62.07
37066;BME280;22981;43.080;25.550;2024-02-21T10:19:03;100302.88;;;11.10;62.43
37066;BME280;22981;43.080;25.550;2024-02-21T10:21:31;100297.39;;;11.07;62.59
37066;BME280;22981;43.080;25.550;2024-02-21T10:23:58;100298.61;;;11.04;62.66
37066;BME280;22981;43.080;25.550;2024-02-21T10:26:26;100296.35;;;11.01;62.79
37066;BME280;22981;43.080;25.550;2024-02-21T10:28:53;100295.84;;;11.02;62.87
37066;BME280;22981;43.080;25.550;2024-02-21T10:31:26;100293.03;;;10.99;62.99
37066;BME280;22981;43.080;25.550;2024-02-21T10:33:55;100288.10;;;10.96;62.94
37066;BME280;22981;43.080;25.550;2024-02-21T10:36:23;100284.27;;;10.95;62.92
37066;BME280;22981;43.080;25.550;2024-02-21T10:38:52;100276.44;;;10.93;62.85
37066;BME280;22981;43.080;25.550;2024-02-21T10:41:21;100274.80;;;10.92;62.73
37066;BME280;22981;43.080;25.550;2024-02-21T10:43:51;100273.24;;;10.94;62.62
37066;BME280;22981;43.080;25.550;2024-02-21T10:46:22;100254.30;;;11.02;62.45
37066;BME280;22981;43.080;25.550;2024-02-21T10:49:07;100245.48;;;11.28;62.36
37066;BME280;22981;43.080;25.550;2024-02-21T10:51:33;100242.78;;;11.68;61.99
37066;BME280;22981;43.080;25.550;2024-02-21T10:54:13;100237.55;;;12.19;61.38
37066;BME280;22981;43.080;25.550;2024-02-21T10:56:35;100236.44;;;12.69;60.44
37066;BME280;22981;43.080;25.550;2024-02-21T10:59:05;100228.88;;;13.07;59.91
37066;BME280;22981;43.080;25.550;2024-02-21T11:01:33;100227.35;;;13.49;59.39
37066;BME280;22981;43.080;25.550;2024-02-21T11:04:04;100220.53;;;13.81;58.26
37066;BME280;22981;43.080;25.550;2024-02-21T11:06:33;100218.17;;;14.10;57.69
37066;BME280;22981;43.080;25.550;2024-02-21T11:09:09;100217.99;;;14.41;56.90
37066;BME280;22981;43.080;25.550;2024-02-21T11:11:39;100217.48;;;14.23;56.25
37066;BME280;22981;43.080;25.550;2024-02-21T11:14:09;100220.23;;;13.80;56.13
37066;BME280;22981;43.080;25.550;2024-02-21T11:16:38;100216.11;;;13.43;57.05
37066;BME280;22981;43.080;25.550;2024-02-21T11:19:09;100217.80;;;13.22;57.65
37066;BME280;22981;43.080;25.550;2024-02-21T11:21:38;100209.05;;;13.01;58.11
37066;BME280;22981;43.080;25.550;2024-02-21T11:24:07;100220.01;;;12.84;58.33
37066;BME280;22981;43.080;25.550;2024-02-21T11:26:39;100214.07;;;12.60;58.54
37066;BME280;22981;43.080;25.550;2024-02-21T11:29:09;100211.83;;;12.72;58.70
37066;BME280;22981;43.080;25.550;2024-02-21T11:31:41;100206.88;;;13.01;58.23
37066;BME280;22981;43.080;25.550;2024-02-21T11:34:10;100207.70;;;13.17;57.78
37066;BME280;22981;43.080;25.550;2024-02-21T11:36:48;100207.86;;;13.54;57.25
37066;BME280;22981;43.080;25.550;2024-02-21T11:39:20;100196.31;;;13.90;56.42
37066;BME280;22981;43.080;25.550;2024-02-21T11:42:04;100199.98;;;14.23;55.62
37066;BME280;22981;43.080;25.550;2024-02-21T11:44:32;100191.05;;;14.41;55.26
37066;BME280;22981;43.080;25.550;2024-02-21T11:47:00;100187.92;;;14.26;54.93
37066;BME280;22981;43.080;25.550;2024-02-21T11:49:30;100192.12;;;14.13;55.24
37066;BME280;22981;43.080;25.550;2024-02-21T11:51:59;100184.72;;;13.99;55.34
37066;BME280;22981;43.080;25.550;2024-02-21T11:54:27;100182.27;;;13.88;55.17
37066;BME280;22981;43.080;25.550;2024-02-21T11:56:55;100181.27;;;13.83;55.06
37066;BME280;22981;43.080;25.550;2024-02-21T11:59:23;100183.61;;;13.79;54.94
37066;BME280;22981;43.080;25.550;2024-02-21T12:01:50;100177.45;;;13.63;54.19
37066;BME280;22981;43.080;25.550;2024-02-21T12:04:19;100169.25;;;13.33;53.92
37066;BME280;22981;43.080;25.550;2024-02-21T12:06:47;100171.81;;;13.05;54.22
37066;BME280;22981;43.080;25.550;2024-02-21T12:09:18;100165.16;;;12.83;54.55
37066;BME280;22981;43.080;25.550;2024-02-21T12:11:56;100164.02;;;12.65;54.92
37066;BME280;22981;43.080;25.550;2024-02-21T12:14:18;100162.53;;;12.53;55.07
37066;BME280;22981;43.080;25.550;2024-02-21T12:16:45;100163.53;;;12.43;55.49
37066;BME280;22981;43.080;25.550;2024-02-21T12:19:14;100161.20;;;12.38;55.70
37066;BME280;22981;43.080;25.550;2024-02-21T12:21:43;100159.98;;;12.34;55.91
37066;BME280;22981;43.080;25.550;2024-02-21T12:24:27;100156.37;;;12.31;56.18
37066;BME280;22981;43.080;25.550;2024-02-21T12:26:54;100152.86;;;12.30;55.97
37066;BME280;22981;43.080;25.550;2024-02-21T12:29:24;100147.92;;;12.20;55.67
37066;BME280;22981;43.080;25.550;2024-02-21T12:31:52;100149.31;;;12.14;55.78
37066;BME280;22981;43.080;25.550;2024-02-21T12:34:23;100148.31;;;12.08;55.70
37066;BME280;22981;43.080;25.550;2024-02-21T12:36:51;100144.83;;;12.01;56.09
37066;BME280;22981;43.080;25.550;2024-02-21T12:39:18;100148.33;;;12.01;56.40
37066;BME280;22981;43.080;25.550;2024-02-21T12:41:46;100144.08;;;12.03;56.34
37066;BME280;22981;43.080;25.550;2024-02-21T12:44:14;100142.95;;;12.01;56.51
37066;BME280;22981;43.080;25.550;2024-02-21T12:46:42;100141.62;;;12.01;56.59
37066;BME280;22981;43.080;25.550;2024-02-21T12:49:10;100137.00;;;11.99;56.58
37066;BME280;22981;43.080;25.550;2024-02-21T12:51:38;100135.33;;;11.98;56.58
37066;BME280;22981;43.080;25.550;2024-02-21T12:54:06;100137.41;;;11.96;56.42
37066;BME280;22981;43.080;25.550;2024-02-21T12:56:35;100133.39;;;11.96;56.43